Terminal Aerodrome Forecast
Issued by NWS

Home | Current Version | Previous Version | Text Only | Print | Product List | Glossary On
Versions: 1 2 3 4 5 6 7 8 9 10 11 12 13 14 15 16 17 18 19 20 21
000
FTAK31 PANC 251138
TAFADL
TAF
PADL 251138Z 2512/2612 VRB04KT P6SM -SHRA SCT035 BKN080
     FM251900 05007KT P6SM -SHRA BKN040 OVC080
     FM260000 05009G15KT P6SM -SHRA OVC040
     FM260600 06008KT P6SM VCSH FEW050 SCT120=

USA.gov is the U.S. government's official web portal to all federal, state and local government web resources and services.